createdAt,value
2023-07-24T00:00:40.808Z,99471.80
2023-07-24T00:03:11.865Z,99470.24
2023-07-24T00:05:42.892Z,99463.86
2023-07-24T00:08:13.898Z,99461.88
2023-07-24T00:10:44.916Z,99463.23
2023-07-24T00:13:15.926Z,99468.17
2023-07-24T00:15:47.133Z,99469.15
2023-07-24T00:18:20.564Z,99476.95
2023-07-24T00:20:51.517Z,99478.08
2023-07-24T00:23:22.555Z,99484.23
2023-07-24T00:25:54.370Z,99480.80
2023-07-24T00:28:25.470Z,99486.08
2023-07-24T00:30:58.379Z,99488.23
2023-07-24T00:33:29.938Z,99484.66
2023-07-24T00:36:01.203Z,99483.95
2023-07-24T00:38:32.214Z,99485.29
2023-07-24T00:41:03.318Z,99483.80
2023-07-24T00:43:34.393Z,99483.55
2023-07-24T00:46:06.825Z,99483.84
2023-07-24T00:48:39.292Z,99485.80
2023-07-24T00:51:12.818Z,99486.93
2023-07-24T00:53:44.002Z,99486.10
2023-07-24T00:56:15.680Z,99489.09
2023-07-24T00:58:46.682Z,99483.44
2023-07-24T01:01:20.492Z,99482.98
2023-07-24T01:03:51.981Z,99484.11
2023-07-24T01:06:23.005Z,99484.72
2023-07-24T01:08:53.940Z,99486.55
2023-07-24T01:11:30.059Z,99490.85
2023-07-24T01:14:06.787Z,99490.84
2023-07-24T01:16:42.594Z,99494.11
2023-07-24T01:19:25.944Z,99495.30
2023-07-24T01:22:23.215Z,99494.98
2023-07-24T01:25:07.677Z,99490.97
2023-07-24T01:27:42.591Z,99493.26
2023-07-24T01:30:15.255Z,99493.20
2023-07-24T01:32:46.394Z,99494.90
2023-07-24T01:35:17.596Z,99499.38
2023-07-24T01:40:50.307Z,99495.58
2023-07-24T01:43:21.089Z,99495.67
2023-07-24T01:45:51.886Z,99491.14
2023-07-24T01:48:22.725Z,99489.64
2023-07-24T01:50:53.528Z,99487.66
2023-07-24T01:53:24.335Z,99488.41
2023-07-24T01:55:55.210Z,99486.49
2023-07-24T01:58:26.059Z,99483.29
2023-07-24T02:00:58.638Z,99479.23
2023-07-24T02:03:29.769Z,99477.36
2023-07-24T02:06:00.643Z,99476.73
2023-07-24T02:08:32.123Z,99470.27
2023-07-24T02:11:02.860Z,99472.30
2023-07-24T02:13:33.691Z,99471.21
2023-07-24T02:16:04.887Z,99466.53
2023-07-24T02:18:35.752Z,99468.09
2023-07-24T02:21:06.479Z,99459.55
2023-07-24T02:23:37.340Z,99461.14
2023-07-24T02:26:09.365Z,99462.52
2023-07-24T02:28:40.105Z,99461.62
2023-07-24T02:31:10.858Z,99463.51
2023-07-24T02:33:41.657Z,99463.23
2023-07-24T02:36:12.695Z,99466.70
2023-07-24T02:38:44.905Z,99463.09
2023-07-24T02:41:15.711Z,99460.50
2023-07-24T02:43:46.474Z,99477.88
2023-07-24T02:46:17.395Z,99479.81
2023-07-24T02:48:48.276Z,99484.21
2023-07-24T02:51:19.120Z,99486.83
2023-07-24T02:53:53.008Z,99480.79
2023-07-24T02:56:24.269Z,99480.47
2023-07-24T02:58:54.996Z,99479.98
2023-07-24T03:01:25.858Z,99483.86
2023-07-24T03:03:56.620Z,99486.69
2023-07-24T03:06:27.888Z,99490.40
2023-07-24T03:08:59.145Z,99488.19
2023-07-24T03:11:29.895Z,99491.38
2023-07-24T03:14:00.720Z,99489.36
2023-07-24T03:16:31.827Z,99490.64
2023-07-24T03:19:03.214Z,99494.48
2023-07-24T03:21:34.332Z,99495.92
2023-07-24T03:24:05.927Z,99494.92
2023-07-24T03:26:39.622Z,99494.97
2023-07-24T03:29:10.402Z,99498.89
2023-07-24T03:31:41.296Z,99500.22
2023-07-24T03:34:13.765Z,99500.85
2023-07-24T03:36:44.610Z,99502.55
2023-07-24T03:39:15.747Z,99501.66
2023-07-24T03:41:46.673Z,99501.48
2023-07-24T03:44:17.518Z,99503.48
2023-07-24T03:46:48.334Z,99506.26
2023-07-24T03:49:19.129Z,99506.09
2023-07-24T03:51:49.946Z,99507.46
2023-07-24T03:54:21.112Z,99506.32
2023-07-24T03:56:51.869Z,99502.84
2023-07-24T03:59:22.663Z,99504.30
2023-07-24T04:01:53.542Z,99508.34
2023-07-24T04:04:27.237Z,99512.46
2023-07-24T04:07:00.643Z,99515.38
2023-07-24T04:09:34.370Z,99515.09
2023-07-24T04:12:07.495Z,99514.46
2023-07-24T04:14:38.273Z,99511.46
2023-07-24T04:17:09.843Z,99506.16
2023-07-24T04:19:41.241Z,99506.51
2023-07-24T04:22:13.250Z,99505.14
2023-07-24T04:24:47.225Z,99509.70
2023-07-24T04:27:17.985Z,99511.04
2023-07-24T04:29:48.721Z,99516.20
2023-07-24T04:32:21.374Z,99518.13
2023-07-24T04:35:08.180Z,99515.98
2023-07-24T04:37:40.879Z,99516.80
2023-07-24T04:40:14.792Z,99515.65
2023-07-24T04:42:45.787Z,99511.98
2023-07-24T04:45:16.812Z,99511.36
2023-07-24T04:47:47.710Z,99510.02
2023-07-24T04:50:18.754Z,99508.75
2023-07-24T04:52:52.959Z,99508.19
2023-07-24T04:55:26.333Z,99509.88
2023-07-24T04:57:58.959Z,99508.47
2023-07-24T05:00:31.185Z,99510.89
2023-07-24T05:03:02.011Z,99517.24
2023-07-24T05:05:33.034Z,99519.16
2023-07-24T05:08:04.172Z,99515.27
2023-07-24T05:10:40.027Z,99515.36
2023-07-24T05:13:13.907Z,99517.89
2023-07-24T05:15:44.871Z,99514.62
2023-07-24T05:18:15.674Z,99512.40
2023-07-24T05:20:49.920Z,99510.62
2023-07-24T05:23:22.537Z,99509.52
2023-07-24T05:26:00.796Z,99512.36
2023-07-24T05:28:32.644Z,99513.67
2023-07-24T05:31:08.739Z,99514.10
2023-07-24T05:33:39.797Z,99515.20
2023-07-24T05:36:11.886Z,99517.86
2023-07-24T05:38:42.693Z,99515.91
2023-07-24T05:41:13.652Z,99521.75
2023-07-24T05:43:44.502Z,99525.30
2023-07-24T05:46:15.371Z,99525.30
2023-07-24T05:48:46.621Z,99530.95
2023-07-24T05:51:17.614Z,99529.05
2023-07-24T05:53:51.618Z,99534.80
2023-07-24T05:56:22.440Z,99532.31
2023-07-24T05:58:53.286Z,99542.77
2023-07-24T06:01:24.376Z,99539.60
2023-07-24T06:03:55.391Z,99538.28
2023-07-24T06:06:28.441Z,99540.19
2023-07-24T06:08:59.604Z,99541.41
2023-07-24T06:11:30.764Z,99547.27
2023-07-24T06:14:01.665Z,99539.90
2023-07-24T06:16:32.834Z,99540.36
2023-07-24T06:19:04.195Z,99540.30
2023-07-24T06:21:35.051Z,99540.20
2023-07-24T06:24:13.436Z,99538.11
2023-07-24T06:26:44.366Z,99535.46
2023-07-24T06:29:15.924Z,99533.45
2023-07-24T06:31:46.876Z,99535.29
2023-07-24T06:34:20.135Z,99529.27
2023-07-24T06:36:51.125Z,99530.27
2023-07-24T06:39:21.995Z,99530.59
2023-07-24T06:41:54.852Z,99536.86
2023-07-24T06:44:25.954Z,99532.64
2023-07-24T06:46:57.945Z,99533.60
2023-07-24T06:49:28.827Z,99535.34
2023-07-24T06:51:59.770Z,99535.42
2023-07-24T06:54:30.825Z,99543.13
2023-07-24T06:57:01.771Z,99543.39
2023-07-24T06:59:38.932Z,99539.38
2023-07-24T07:02:09.728Z,99536.85
2023-07-24T07:04:40.588Z,99536.14
2023-07-24T07:07:13.919Z,99531.67
2023-07-24T07:09:44.901Z,99527.16
2023-07-24T07:12:16.066Z,99531.27
2023-07-24T07:14:49.160Z,99530.19
2023-07-24T07:18:23.591Z,99522.74
2023-07-24T07:20:55.825Z,99519.09
2023-07-24T07:23:26.806Z,99514.59
2023-07-24T07:25:57.844Z,99517.64
2023-07-24T07:28:28.772Z,99520.36
2023-07-24T07:30:59.628Z,99522.98
2023-07-24T07:33:31.052Z,99529.84
2023-07-24T07:36:04.342Z,99528.81
2023-07-24T07:38:35.222Z,99527.42
2023-07-24T07:41:09.604Z,99521.55
2023-07-24T07:43:40.717Z,99520.54
2023-07-24T07:46:12.372Z,99520.21
2023-07-24T07:48:43.331Z,99516.56
2023-07-24T07:52:54.862Z,99516.98
2023-07-24T07:55:25.791Z,99522.20
2023-07-24T07:57:57.913Z,99518.70
2023-07-24T08:00:29.108Z,99524.41
2023-07-24T08:03:00.148Z,99523.85
2023-07-24T08:05:33.138Z,99522.84
2023-07-24T08:08:05.399Z,99520.15
2023-07-24T08:10:39.153Z,99520.48
2023-07-24T08:13:10.213Z,99520.98
2023-07-24T08:15:42.081Z,99522.65
2023-07-24T08:18:13.016Z,99520.84
2023-07-24T08:20:45.171Z,99520.02
2023-07-24T08:23:16.178Z,99522.77
2023-07-24T08:25:56.337Z,99522.20
2023-07-24T08:28:27.350Z,99523.36
2023-07-24T08:31:07.095Z,99519.71
2023-07-24T08:33:38.778Z,99517.95
2023-07-24T08:36:12.749Z,99513.88
2023-07-24T08:38:44.626Z,99514.04
2023-07-24T08:41:17.140Z,99510.94
2023-07-24T08:43:48.102Z,99508.77
2023-07-24T08:46:20.104Z,99507.83
2023-07-24T08:48:50.905Z,99510.06
2023-07-24T08:51:23.340Z,99504.35
2023-07-24T08:53:55.045Z,99506.71
2023-07-24T08:56:26.010Z,99508.44
2023-07-24T08:58:57.611Z,99505.64
2023-07-24T09:01:29.005Z,99504.64
2023-07-24T09:03:59.935Z,99504.23
2023-07-24T09:06:31.306Z,99501.48
2023-07-24T09:09:04.206Z,99498.03
2023-07-24T09:11:35.112Z,99497.30
2023-07-24T09:14:19.990Z,99491.48
2023-07-24T09:16:54.342Z,99486.02
2023-07-24T09:19:27.633Z,99478.30
2023-07-24T09:21:58.477Z,99482.36
2023-07-24T09:24:29.628Z,99481.78
2023-07-24T09:27:00.572Z,99481.51
2023-07-24T09:29:37.596Z,99477.96
2023-07-24T09:32:10.050Z,99477.29
2023-07-24T09:34:45.572Z,99474.90
2023-07-24T09:37:27.503Z,99474.09
2023-07-24T09:40:00.081Z,99476.30
2023-07-24T09:42:48.495Z,99472.33
2023-07-24T09:45:29.500Z,99470.63
2023-07-24T09:48:06.313Z,99464.73
2023-07-24T09:50:39.710Z,99460.60
2023-07-24T09:53:17.676Z,99449.16
2023-07-24T09:55:53.938Z,99445.48
2023-07-24T09:58:25.642Z,99440.48
2023-07-24T10:00:57.186Z,99442.05
2023-07-24T10:03:29.150Z,99433.39
2023-07-24T10:06:01.914Z,99425.88
2023-07-24T10:08:33.240Z,99422.08
2023-07-24T10:11:04.911Z,99422.38
2023-07-24T10:13:37.860Z,99416.11
2023-07-24T10:16:09.180Z,99409.44
2023-07-24T10:18:47.149Z,99409.19
2023-07-24T10:21:18.760Z,99415.09
2023-07-24T10:23:50.093Z,99410.46
2023-07-24T10:26:29.250Z,99405.64
2023-07-24T10:29:00.847Z,99402.43
2023-07-24T10:31:32.102Z,99404.85
2023-07-24T10:34:13.606Z,99409.77
2023-07-24T10:36:44.450Z,99406.37
2023-07-24T10:39:19.992Z,99401.79
2023-07-24T10:41:50.840Z,99390.05
2023-07-24T10:44:32.019Z,99389.04
2023-07-24T10:47:03.997Z,99381.23
2023-07-24T10:49:34.831Z,99381.90
2023-07-24T10:52:06.352Z,99380.60
2023-07-24T10:54:39.334Z,99375.02
2023-07-24T10:57:11.605Z,99366.71
2023-07-24T10:59:43.082Z,99358.45
2023-07-24T11:02:14.341Z,99357.39
2023-07-24T11:04:48.418Z,99355.21
2023-07-24T11:10:22.040Z,99354.36
2023-07-24T11:12:54.911Z,99352.67
2023-07-24T11:15:37.010Z,99339.30
2023-07-24T11:18:11.192Z,99334.29
2023-07-24T11:20:47.502Z,99333.97
2023-07-24T11:23:18.998Z,99331.38
2023-07-24T11:25:52.291Z,99329.88
2023-07-24T11:28:25.018Z,99324.73
2023-07-24T11:31:04.334Z,99331.42
2023-07-24T11:33:35.902Z,99324.63
2023-07-24T11:36:07.320Z,99321.90
2023-07-24T11:38:40.106Z,99322.23
2023-07-24T11:41:12.094Z,99320.25
2023-07-24T11:43:50.131Z,99319.77
2023-07-24T11:46:29.416Z,99319.14
2023-07-24T11:49:00.413Z,99312.50
2023-07-24T11:51:34.801Z,99304.27
2023-07-24T11:54:12.842Z,99297.77
2023-07-24T11:56:43.880Z,99300.71
2023-07-24T11:59:16.625Z,99292.27
2023-07-24T12:01:51.074Z,99292.38
2023-07-24T12:04:22.190Z,99295.04
2023-07-24T12:06:53.974Z,99294.24
2023-07-24T12:09:30.968Z,99297.01
2023-07-24T12:12:05.700Z,99297.30
2023-07-24T12:14:36.532Z,99289.48
2023-07-24T12:17:11.235Z,99282.00
2023-07-24T12:19:40.507Z,99271.48
2023-07-24T12:22:11.224Z,99271.27
2023-07-24T12:24:42.178Z,99268.27
2023-07-24T12:27:13.107Z,99263.86
2023-07-24T12:29:43.931Z,99265.33
2023-07-24T12:32:14.742Z,99265.29
2023-07-24T12:34:46.316Z,99261.92
2023-07-24T12:37:17.193Z,99255.90
2023-07-24T12:39:48.897Z,99250.11
2023-07-24T12:42:20.171Z,99244.12
2023-07-24T12:44:51.171Z,99232.20
2023-07-24T12:47:22.021Z,99229.47
2023-07-24T12:49:53.758Z,99224.69
2023-07-24T12:52:25.404Z,99228.45
2023-07-24T12:55:02.126Z,99227.66
2023-07-24T12:57:33.874Z,99226.97
2023-07-24T13:00:09.135Z,99220.35
2023-07-24T13:02:40.299Z,99213.59
2023-07-24T13:05:11.696Z,99213.77
2023-07-24T13:07:42.606Z,99206.16
2023-07-24T13:10:14.126Z,99201.45
2023-07-24T13:12:45.798Z,99193.66
2023-07-24T13:15:16.703Z,99190.14
2023-07-24T13:17:48.696Z,99186.38
2023-07-24T13:20:19.552Z,99177.52
2023-07-24T13:22:50.501Z,99174.92
2023-07-24T13:25:21.849Z,99174.73
2023-07-24T13:27:54.166Z,99169.55
2023-07-24T13:30:25.365Z,99167.48
2023-07-24T13:32:56.239Z,99164.47
2023-07-24T13:35:27.336Z,99161.30
2023-07-24T13:47:41.610Z,99154.19
2023-07-24T13:50:13.201Z,99149.30
2023-07-24T13:52:44.140Z,99143.75
2023-07-24T13:55:15.310Z,99137.66
2023-07-24T13:57:46.137Z,99136.08
2023-07-24T14:00:18.667Z,99126.95
2023-07-24T14:02:49.607Z,99114.83
2023-07-24T14:05:20.881Z,99112.89
2023-07-24T14:07:52.721Z,99115.29
2023-07-24T14:10:23.743Z,99117.02
2023-07-24T14:12:54.584Z,99113.31
2023-07-24T14:15:25.835Z,99111.38
2023-07-24T14:17:56.795Z,99107.07
2023-07-24T14:20:27.816Z,99107.67
2023-07-24T14:22:58.791Z,99103.21
2023-07-24T14:25:29.982Z,99108.77
2023-07-24T14:28:16.408Z,99105.55
2023-07-24T14:30:51.441Z,99101.27
2023-07-24T14:33:23.578Z,99094.96
2023-07-24T14:35:56.050Z,99093.38
2023-07-24T14:38:27.015Z,99095.13
2023-07-24T14:40:57.966Z,99095.09
2023-07-24T14:43:28.733Z,99090.34
2023-07-24T14:46:00.458Z,99085.85
2023-07-24T14:48:34.376Z,99081.10
2023-07-24T14:51:05.725Z,99072.52
2023-07-24T14:53:37.694Z,99068.92
2023-07-24T14:56:08.831Z,99066.95
2023-07-24T14:58:39.589Z,99065.13
2023-07-24T15:01:10.365Z,99060.11
2023-07-24T15:03:41.180Z,99057.92
2023-07-24T15:06:11.964Z,99056.13
2023-07-24T15:08:42.790Z,99053.67
2023-07-24T15:11:14.510Z,99047.85
2023-07-24T15:13:45.557Z,99045.47
2023-07-24T15:16:16.417Z,99042.98
2023-07-24T15:18:47.108Z,99040.36
2023-07-24T15:21:17.862Z,99041.95
2023-07-24T15:23:52.973Z,99038.15
2023-07-24T15:26:23.835Z,99039.63
2023-07-24T15:28:54.540Z,99040.02
2023-07-24T15:31:25.398Z,99038.30
2023-07-24T15:33:56.607Z,99031.35
2023-07-24T15:36:27.383Z,99028.11
2023-07-24T15:38:58.125Z,99024.48
2023-07-24T15:41:29.164Z,99020.75
2023-07-24T15:44:00.969Z,99017.28
2023-07-24T15:46:33.089Z,99009.70
2023-07-24T15:49:04.239Z,99011.28
2023-07-24T15:51:36.911Z,99005.62
2023-07-24T15:54:11.396Z,99003.91
2023-07-24T15:56:43.272Z,99007.78
2023-07-24T15:59:15.202Z,99012.30
2023-07-24T16:01:46.000Z,99009.77
2023-07-24T16:04:16.820Z,99002.59
2023-07-24T16:06:47.707Z,99001.67
2023-07-24T16:09:18.688Z,98999.29
2023-07-24T16:11:49.504Z,99000.52
2023-07-24T16:14:20.230Z,98998.02
2023-07-24T16:16:51.420Z,98988.95
2023-07-24T16:19:23.474Z,98980.45
2023-07-24T16:21:57.149Z,98979.55
2023-07-24T16:24:27.910Z,98974.48
2023-07-24T16:26:58.816Z,98974.42
2023-07-24T16:29:29.777Z,98969.48
2023-07-24T16:32:00.700Z,98970.55
2023-07-24T16:34:32.508Z,98963.27
2023-07-24T16:37:03.402Z,98957.65
2023-07-24T16:39:34.258Z,98955.73
2023-07-24T16:42:05.068Z,98946.04
2023-07-24T16:44:37.575Z,98940.08
2023-07-24T16:47:12.499Z,98938.73
2023-07-24T16:49:43.368Z,98934.43
2023-07-24T16:52:14.117Z,98933.73
2023-07-24T16:54:45.547Z,98932.61
2023-07-24T16:57:16.315Z,98926.40
2023-07-24T16:59:47.009Z,98925.38
2023-07-24T17:02:17.717Z,98926.63
2023-07-24T17:04:48.533Z,98928.78
2023-07-24T17:07:19.362Z,98932.09
2023-07-24T17:09:50.197Z,98932.08
2023-07-24T17:12:20.947Z,98928.41
2023-07-24T17:14:52.164Z,98920.23
2023-07-24T17:17:23.162Z,98919.36
2023-07-24T17:19:54.006Z,98921.55
2023-07-24T17:22:24.814Z,98917.95
2023-07-24T17:24:55.527Z,98916.90
2023-07-24T17:27:26.740Z,98914.02
2023-07-24T17:29:58.184Z,98910.91
2023-07-24T17:32:29.092Z,98904.85
2023-07-24T17:34:59.876Z,98904.15
2023-07-24T17:40:10.122Z,98902.25
2023-07-24T17:42:40.904Z,98900.13
2023-07-24T17:45:13.982Z,98898.39
2023-07-24T17:47:47.175Z,98897.84
2023-07-24T17:50:18.217Z,98897.44
2023-07-24T17:52:49.248Z,98897.31
2023-07-24T17:55:20.068Z,98892.98
2023-07-24T17:57:52.383Z,98890.05
2023-07-24T18:00:23.769Z,98888.23
2023-07-24T18:02:54.629Z,98889.03
2023-07-24T18:05:26.140Z,98888.08
2023-07-24T18:07:56.864Z,98889.97
2023-07-24T18:10:27.700Z,98890.66
2023-07-24T18:12:58.530Z,98886.40
2023-07-24T18:15:29.264Z,98890.17
2023-07-24T18:18:00.005Z,98891.54
2023-07-24T18:20:32.028Z,98888.91
2023-07-24T18:23:02.837Z,98884.66
2023-07-24T18:25:33.577Z,98886.20
2023-07-24T18:28:04.449Z,98887.27
2023-07-24T18:30:35.310Z,98880.77
2023-07-24T18:33:06.091Z,98878.53
2023-07-24T18:35:36.988Z,98872.41
2023-07-24T18:38:07.732Z,98873.14
2023-07-24T18:40:38.471Z,98873.37
2023-07-24T18:43:09.273Z,98874.27
2023-07-24T18:45:40.077Z,98874.63
2023-07-24T18:48:12.459Z,98871.48
2023-07-24T18:50:44.657Z,98870.39
2023-07-24T18:53:15.351Z,98866.23
2023-07-24T18:55:46.257Z,98869.55
2023-07-24T18:58:17.073Z,98875.74
2023-07-24T19:00:48.615Z,98879.90
2023-07-24T19:03:19.379Z,98887.15
2023-07-24T19:05:51.227Z,98883.79
2023-07-24T19:08:22.555Z,98879.41
2023-07-24T19:10:53.544Z,98874.36
2023-07-24T19:13:25.701Z,98870.18
2023-07-24T19:15:57.386Z,98865.65
2023-07-24T19:18:31.398Z,98859.90
2023-07-24T19:21:03.956Z,98858.09
2023-07-24T19:23:34.690Z,98858.48
2023-07-24T19:26:06.815Z,98859.09
2023-07-24T19:28:45.219Z,98861.05
2023-07-24T19:31:16.105Z,98865.33
2023-07-24T19:33:52.505Z,98869.95
2023-07-24T19:36:25.772Z,98871.42
2023-07-24T19:38:56.827Z,98873.84
2023-07-24T19:41:27.827Z,98874.27
2023-07-24T19:43:58.707Z,98864.10
2023-07-24T19:46:29.643Z,98863.73
2023-07-24T19:49:01.113Z,98869.19
2023-07-24T19:51:32.198Z,98867.22
2023-07-24T19:54:03.162Z,98865.88
2023-07-24T19:56:35.168Z,98862.13
2023-07-24T19:59:06.310Z,98868.05
2023-07-24T20:01:38.630Z,98867.13
2023-07-24T20:04:11.824Z,98863.39
2023-07-24T20:06:42.966Z,98864.02
2023-07-24T20:09:14.306Z,98865.38
2023-07-24T20:11:49.078Z,98872.64
2023-07-24T20:14:20.611Z,98872.98
2023-07-24T20:16:51.504Z,98868.58
2023-07-24T20:19:22.703Z,98868.11
2023-07-24T20:21:53.590Z,98865.92
2023-07-24T20:24:24.505Z,98859.56
2023-07-24T20:26:55.304Z,98854.46
2023-07-24T20:29:26.086Z,98849.81
2023-07-24T20:31:56.969Z,98852.80
2023-07-24T20:34:27.743Z,98851.98
2023-07-24T20:36:58.448Z,98859.06
2023-07-24T20:39:29.142Z,98858.63
2023-07-24T20:42:00.095Z,98858.89
2023-07-24T20:44:31.152Z,98855.14
2023-07-24T20:47:02.054Z,98852.40
2023-07-24T20:49:35.294Z,98849.13
2023-07-24T20:52:07.005Z,98847.45
2023-07-24T20:54:37.769Z,98846.02
2023-07-24T20:57:09.480Z,98846.92
2023-07-24T20:59:40.473Z,98839.89
2023-07-24T21:02:11.514Z,98837.30
2023-07-24T21:04:43.267Z,98828.63
2023-07-24T21:07:14.173Z,98822.89
2023-07-24T21:09:44.945Z,98837.52
2023-07-24T21:12:16.002Z,98837.23
2023-07-24T21:14:46.852Z,98833.77
2023-07-24T21:17:17.690Z,98828.90
2023-07-24T21:19:48.480Z,98828.95
2023-07-24T21:22:19.292Z,98823.54
2023-07-24T21:24:50.016Z,98823.91
2023-07-24T21:27:20.839Z,98826.89
2023-07-24T21:29:53.465Z,98827.02
2023-07-24T21:32:24.256Z,98827.73
2023-07-24T21:34:55.010Z,98831.69
2023-07-24T21:37:25.863Z,98836.08
2023-07-24T21:39:59.361Z,98835.50
2023-07-24T21:42:30.082Z,98824.55
2023-07-24T21:45:00.833Z,98819.84
2023-07-24T21:47:31.726Z,98813.54
2023-07-24T21:50:02.809Z,98811.20
2023-07-24T21:52:33.593Z,98812.05
2023-07-24T21:55:04.471Z,98810.88
2023-07-24T21:57:35.231Z,98814.81
2023-07-24T22:00:06.911Z,98807.77
2023-07-24T22:02:43.307Z,98799.02
2023-07-24T22:05:14.175Z,98796.47
2023-07-24T22:07:44.938Z,98796.50
2023-07-24T22:10:15.666Z,98793.66
2023-07-24T22:12:46.505Z,98795.00
2023-07-24T22:15:18.053Z,98802.11
2023-07-24T22:17:49.027Z,98799.06
2023-07-24T22:20:34.721Z,98792.54
2023-07-24T22:23:11.046Z,98794.17
2023-07-24T22:25:44.350Z,98793.98
2023-07-24T22:28:15.148Z,98792.02
2023-07-24T22:30:46.042Z,98794.34
2023-07-24T22:33:17.040Z,98792.63
2023-07-24T22:35:48.269Z,98792.32
2023-07-24T22:38:19.026Z,98792.14
2023-07-24T22:40:49.708Z,98788.64
2023-07-24T22:43:20.519Z,98788.43
2023-07-24T22:45:51.620Z,98792.89
2023-07-24T22:48:22.614Z,98789.20
2023-07-24T22:50:53.341Z,98792.36
2023-07-24T22:53:24.064Z,98798.31
2023-07-24T22:55:54.794Z,98801.66
2023-07-24T22:58:25.836Z,98803.25
2023-07-24T23:00:56.586Z,98792.69
2023-07-24T23:03:27.471Z,98791.80
2023-07-24T23:05:58.250Z,98790.11
2023-07-24T23:08:29.060Z,98789.77
2023-07-24T23:10:59.752Z,98787.64
2023-07-24T23:13:30.558Z,98780.62
2023-07-24T23:16:03.839Z,98778.63
2023-07-24T23:18:34.986Z,98772.20
2023-07-24T23:21:06.834Z,98762.94
2023-07-24T23:23:37.639Z,98764.00
2023-07-24T23:26:08.806Z,98765.17
2023-07-24T23:28:39.529Z,98763.52
2023-07-24T23:31:11.106Z,98759.30
2023-07-24T23:33:42.247Z,98751.48
2023-07-24T23:36:13.042Z,98744.90
2023-07-24T23:38:43.851Z,98742.95
2023-07-24T23:41:15.106Z,98745.52
2023-07-24T23:43:45.803Z,98746.45
2023-07-24T23:46:18.220Z,98739.11
2023-07-24T23:48:49.043Z,98732.78
2023-07-24T23:51:21.627Z,98741.20
2023-07-24T23:53:53.102Z,98734.52
2023-07-24T23:56:23.820Z,98741.96
2023-07-24T23:58:54.627Z,98752.95
